Aérodrome :
LOGIN :

S'inscrire | Disclaimer

   EN    FR    IT 

 










Légende :    VFR   VFR Marginal   IFR   IFR Intensif   IFR Très Intensif
Visi : 
Plafond : 
>= 8 km
>= 3000ft
5 à 8 km
1000 à 3000 ft
1500m à 5 km
500 à 1000 ft
800 à 1500m
200 à 500 ft
< 800m
< 200 ft
Symboles :   Orages  Brouillard  Fortes neiges  Fortes précipitations  Vent > 20 kt
SIGMETs :   Divers  Orages  Givrage  Turbulence  Onde Orograph.  Cendres Volcan.







- Altitude de l'aérodrome : 1521 ft
- Code IATA : NCY
- Voir les cartes d'approche


LFLP - Annecy

DERNIER METAR :
  • 131630Z AUTO 14008KT 9999 -SNRA OVC028 02/M00 Q1015 TEMPO 3000 RA BKN010 BKN015

METARs EXPIRÉS :
  • 131600Z AUTO 00000KT 9999 -SN BKN028 OVC034 02/M01 Q1015 TEMPO 3000 -RASN
  • 131530Z AUTO 21005KT 9999 -SNRA SCT028 BKN033 OVC042 02/M02 Q1015 NOSIG
  • 131500Z AUTO 18006KT 160V220 9999 FEW026 BKN035 BKN042 03/M02 Q1015 NOSIG
  • 131430Z AUTO VRB03KT 9999 FEW043 BKN052 OVC064 02/M01 Q1015 NOSIG
  • 131400Z AUTO VRB03KT 9999 FEW052 BKN064 OVC074 02/M02 Q1016 TEMPO 2000 RASN

TAF AMD TAF LFLP
Valide du 13 à 15h jusqu'au 14 à 15h UTC


131544Z 1315/1415 22006KT 9999 BKN035
TEMPO 1315/1409 5000 -RA BKN015 BKN025
PROB40
TEMPO 1315/1317 3000 -RASN
PROB40
TEMPO 1318/1404 3000 RA BKN010 BKN015
Pas de NOTAMs connus pour ce terrain.
2 SIGMETs publiés pour la FIR Marseille (LFMM) :
 
Onde orographique forte
LFMM SIGMET 4 VALID 131700/132000 LFPW
LFMM MARSEILLE FIR/UIR SEV MTW FCST E OF E00900 SFC/FL320 STNR NC=
Onde orographique forte
LFMM SIGMET 3 VALID 131300/131700 LFPW
LFMM MARSEILLE FIR/UIR SEV MTW FCST E OF E00900 SFC/FL320 STNR NC=



MET'MAP, la Météo Aéronautique d'un coup d'oeil ! - Copyright ORBIFLY Décembre 2007 - Disclaimer

ORBIFLY MET'MAP TEAM :

Programmation & Développement : Alexandra Zaïnal
Conception & Développement : Baudouin d'Aumeries
Co-Programmation & Développement : Marc-Olivier Méhu
Soutien technique & logistique : Manuel Goepfert

Contact : metmap@orbifly.com




SOURCES & CREDITS :

   NOAA